sensor_id;sensor_type;location;lat;lon;timestamp;P1;durP1;ratioP1;P2;durP2;ratioP2
13228;SDS011;6680;53.220;10.402;2024-02-21T00:00:51;18.60;;;10.10;;
13228;SDS011;6680;53.220;10.402;2024-02-21T00:03:18;20.00;;;10.87;;
13228;SDS011;6680;53.220;10.402;2024-02-21T00:05:45;22.17;;;10.43;;
13228;SDS011;6680;53.220;10.402;2024-02-21T00:08:12;20.00;;;9.30;;
13228;SDS011;6680;53.220;10.402;2024-02-21T00:10:40;22.37;;;10.67;;
13228;SDS011;6680;53.220;10.402;2024-02-21T00:13:07;15.50;;;9.73;;
13228;SDS011;6680;53.220;10.402;2024-02-21T00:15:34;18.67;;;10.40;;
13228;SDS011;6680;53.220;10.402;2024-02-21T00:18:01;23.83;;;10.03;;
13228;SDS011;6680;53.220;10.402;2024-02-21T00:20:27;22.93;;;10.53;;
13228;SDS011;6680;53.220;10.402;2024-02-21T00:22:56;17.10;;;9.77;;
13228;SDS011;6680;53.220;10.402;2024-02-21T00:25:23;21.63;;;9.57;;
13228;SDS011;6680;53.220;10.402;2024-02-21T00:27:51;19.70;;;9.53;;
13228;SDS011;6680;53.220;10.402;2024-02-21T00:30:20;21.87;;;10.27;;
13228;SDS011;6680;53.220;10.402;2024-02-21T00:32:47;16.87;;;10.33;;
13228;SDS011;6680;53.220;10.402;2024-02-21T00:35:14;16.83;;;8.67;;
13228;SDS011;6680;53.220;10.402;2024-02-21T00:37:41;15.97;;;10.23;;
13228;SDS011;6680;53.220;10.402;2024-02-21T00:40:08;16.53;;;9.60;;
13228;SDS011;6680;53.220;10.402;2024-02-21T00:42:35;17.13;;;9.27;;
13228;SDS011;6680;53.220;10.402;2024-02-21T00:45:04;22.67;;;11.50;;
13228;SDS011;6680;53.220;10.402;2024-02-21T00:47:32;16.73;;;10.80;;
13228;SDS011;6680;53.220;10.402;2024-02-21T00:49:58;16.63;;;9.67;;
13228;SDS011;6680;53.220;10.402;2024-02-21T00:52:25;19.73;;;9.87;;
13228;SDS011;6680;53.220;10.402;2024-02-21T00:54:52;18.90;;;10.07;;
13228;SDS011;6680;53.220;10.402;2024-02-21T00:57:19;18.17;;;10.23;;
13228;SDS011;6680;53.220;10.402;2024-02-21T00:59:46;23.63;;;10.40;;
13228;SDS011;6680;53.220;10.402;2024-02-21T01:02:14;21.47;;;10.13;;
13228;SDS011;6680;53.220;10.402;2024-02-21T01:04:41;20.30;;;10.50;;
13228;SDS011;6680;53.220;10.402;2024-02-21T01:07:08;15.17;;;9.07;;
13228;SDS011;6680;53.220;10.402;2024-02-21T01:09:34;19.87;;;9.17;;
13228;SDS011;6680;53.220;10.402;2024-02-21T01:12:01;14.97;;;9.23;;
13228;SDS011;6680;53.220;10.402;2024-02-21T01:14:28;15.03;;;9.20;;
13228;SDS011;6680;53.220;10.402;2024-02-21T01:16:55;17.03;;;9.50;;
13228;SDS011;6680;53.220;10.402;2024-02-21T01:19:23;19.07;;;10.47;;
13228;SDS011;6680;53.220;10.402;2024-02-21T01:21:50;18.90;;;10.17;;
13228;SDS011;6680;53.220;10.402;2024-02-21T01:24:17;15.93;;;9.97;;
13228;SDS011;6680;53.220;10.402;2024-02-21T01:26:43;18.20;;;10.00;;
13228;SDS011;6680;53.220;10.402;2024-02-21T01:29:11;21.57;;;9.53;;
13228;SDS011;6680;53.220;10.402;2024-02-21T01:31:38;19.23;;;9.97;;
13228;SDS011;6680;53.220;10.402;2024-02-21T01:34:05;19.67;;;10.43;;
13228;SDS011;6680;53.220;10.402;2024-02-21T01:36:33;24.47;;;10.13;;
13228;SDS011;6680;53.220;10.402;2024-02-21T01:39:00;14.00;;;9.37;;
13228;SDS011;6680;53.220;10.402;2024-02-21T01:41:26;19.20;;;10.53;;
13228;SDS011;6680;53.220;10.402;2024-02-21T01:43:56;21.17;;;10.07;;
13228;SDS011;6680;53.220;10.402;2024-02-21T01:46:23;20.00;;;10.50;;
13228;SDS011;6680;53.220;10.402;2024-02-21T01:48:52;20.20;;;11.37;;
13228;SDS011;6680;53.220;10.402;2024-02-21T01:51:19;23.33;;;11.07;;
13228;SDS011;6680;53.220;10.402;2024-02-21T01:53:48;17.83;;;10.73;;
13228;SDS011;6680;53.220;10.402;2024-02-21T01:56:17;22.57;;;10.10;;
13228;SDS011;6680;53.220;10.402;2024-02-21T01:58:44;26.53;;;11.17;;
13228;SDS011;6680;53.220;10.402;2024-02-21T02:01:12;16.53;;;9.80;;
13228;SDS011;6680;53.220;10.402;2024-02-21T02:03:39;22.30;;;10.73;;
13228;SDS011;6680;53.220;10.402;2024-02-21T02:06:06;21.33;;;11.43;;
13228;SDS011;6680;53.220;10.402;2024-02-21T02:08:33;22.47;;;11.37;;
13228;SDS011;6680;53.220;10.402;2024-02-21T02:11:01;24.53;;;11.97;;
13228;SDS011;6680;53.220;10.402;2024-02-21T02:13:29;19.93;;;11.23;;
13228;SDS011;6680;53.220;10.402;2024-02-21T02:15:55;18.80;;;11.10;;
13228;SDS011;6680;53.220;10.402;2024-02-21T02:18:22;24.13;;;11.47;;
13228;SDS011;6680;53.220;10.402;2024-02-21T02:20:49;17.17;;;10.23;;
13228;SDS011;6680;53.220;10.402;2024-02-21T02:23:20;20.87;;;10.33;;
13228;SDS011;6680;53.220;10.402;2024-02-21T02:25:48;23.20;;;10.60;;
13228;SDS011;6680;53.220;10.402;2024-02-21T02:28:17;22.00;;;11.33;;
13228;SDS011;6680;53.220;10.402;2024-02-21T02:30:45;22.97;;;12.57;;
13228;SDS011;6680;53.220;10.402;2024-02-21T02:33:12;20.93;;;11.47;;
13228;SDS011;6680;53.220;10.402;2024-02-21T02:35:39;22.03;;;11.23;;
13228;SDS011;6680;53.220;10.402;2024-02-21T02:38:06;24.33;;;11.10;;
13228;SDS011;6680;53.220;10.402;2024-02-21T02:40:34;20.50;;;11.23;;
13228;SDS011;6680;53.220;10.402;2024-02-21T02:43:01;28.00;;;11.80;;
13228;SDS011;6680;53.220;10.402;2024-02-21T02:45:28;23.60;;;12.60;;
13228;SDS011;6680;53.220;10.402;2024-02-21T02:47:55;21.43;;;11.13;;
13228;SDS011;6680;53.220;10.402;2024-02-21T02:50:22;23.47;;;12.40;;
13228;SDS011;6680;53.220;10.402;2024-02-21T02:52:49;21.63;;;12.77;;
13228;SDS011;6680;53.220;10.402;2024-02-21T02:55:16;25.53;;;10.83;;
13228;SDS011;6680;53.220;10.402;2024-02-21T02:57:44;21.73;;;12.27;;
13228;SDS011;6680;53.220;10.402;2024-02-21T03:00:12;20.73;;;11.27;;
13228;SDS011;6680;53.220;10.402;2024-02-21T03:02:41;23.17;;;11.60;;
13228;SDS011;6680;53.220;10.402;2024-02-21T03:05:13;19.40;;;11.80;;
13228;SDS011;6680;53.220;10.402;2024-02-21T03:07:40;21.97;;;10.87;;
13228;SDS011;6680;53.220;10.402;2024-02-21T03:10:08;20.50;;;13.07;;
13228;SDS011;6680;53.220;10.402;2024-02-21T03:12:35;23.83;;;11.83;;
13228;SDS011;6680;53.220;10.402;2024-02-21T03:15:03;29.20;;;14.30;;
13228;SDS011;6680;53.220;10.402;2024-02-21T03:17:31;24.07;;;11.97;;
13228;SDS011;6680;53.220;10.402;2024-02-21T03:19:59;20.33;;;11.77;;
13228;SDS011;6680;53.220;10.402;2024-02-21T03:22:26;24.33;;;12.60;;
13228;SDS011;6680;53.220;10.402;2024-02-21T03:24:53;26.27;;;12.27;;
13228;SDS011;6680;53.220;10.402;2024-02-21T03:27:19;21.87;;;11.70;;
13228;SDS011;6680;53.220;10.402;2024-02-21T03:29:46;19.37;;;11.80;;
13228;SDS011;6680;53.220;10.402;2024-02-21T03:32:15;21.73;;;12.20;;
13228;SDS011;6680;53.220;10.402;2024-02-21T03:34:42;23.23;;;11.97;;
13228;SDS011;6680;53.220;10.402;2024-02-21T03:37:08;21.63;;;12.10;;
13228;SDS011;6680;53.220;10.402;2024-02-21T03:39:35;20.90;;;11.70;;
13228;SDS011;6680;53.220;10.402;2024-02-21T03:42:02;21.23;;;12.13;;
13228;SDS011;6680;53.220;10.402;2024-02-21T03:44:30;25.93;;;11.93;;
13228;SDS011;6680;53.220;10.402;2024-02-21T03:46:57;22.60;;;11.37;;
13228;SDS011;6680;53.220;10.402;2024-02-21T03:49:26;23.13;;;12.83;;
13228;SDS011;6680;53.220;10.402;2024-02-21T03:51:53;29.03;;;12.50;;
13228;SDS011;6680;53.220;10.402;2024-02-21T03:54:20;25.33;;;12.00;;
13228;SDS011;6680;53.220;10.402;2024-02-21T03:56:47;23.27;;;10.93;;
13228;SDS011;6680;53.220;10.402;2024-02-21T03:59:14;26.50;;;12.70;;
13228;SDS011;6680;53.220;10.402;2024-02-21T04:01:41;20.43;;;10.83;;
13228;SDS011;6680;53.220;10.402;2024-02-21T04:04:08;24.60;;;12.07;;
13228;SDS011;6680;53.220;10.402;2024-02-21T04:06:37;26.20;;;11.97;;
13228;SDS011;6680;53.220;10.402;2024-02-21T04:09:11;16.43;;;10.13;;
13228;SDS011;6680;53.220;10.402;2024-02-21T04:11:38;17.10;;;10.57;;
13228;SDS011;6680;53.220;10.402;2024-02-21T04:14:05;19.13;;;11.27;;
13228;SDS011;6680;53.220;10.402;2024-02-21T04:16:32;19.13;;;10.57;;
13228;SDS011;6680;53.220;10.402;2024-02-21T04:18:59;20.20;;;10.43;;
13228;SDS011;6680;53.220;10.402;2024-02-21T04:21:27;19.10;;;10.50;;
13228;SDS011;6680;53.220;10.402;2024-02-21T04:23:55;21.17;;;11.10;;
13228;SDS011;6680;53.220;10.402;2024-02-21T04:26:22;21.53;;;11.13;;
13228;SDS011;6680;53.220;10.402;2024-02-21T04:28:48;26.13;;;12.40;;
13228;SDS011;6680;53.220;10.402;2024-02-21T04:31:15;19.57;;;10.27;;
13228;SDS011;6680;53.220;10.402;2024-02-21T04:33:42;23.40;;;10.33;;
13228;SDS011;6680;53.220;10.402;2024-02-21T04:36:09;23.83;;;10.57;;
13228;SDS011;6680;53.220;10.402;2024-02-21T04:38:35;27.77;;;12.63;;
13228;SDS011;6680;53.220;10.402;2024-02-21T04:41:05;18.93;;;10.37;;
13228;SDS011;6680;53.220;10.402;2024-02-21T04:43:33;20.60;;;10.30;;
13228;SDS011;6680;53.220;10.402;2024-02-21T04:45:59;20.00;;;11.37;;
13228;SDS011;6680;53.220;10.402;2024-02-21T04:48:26;19.60;;;11.10;;
13228;SDS011;6680;53.220;10.402;2024-02-21T04:50:53;24.20;;;11.10;;
13228;SDS011;6680;53.220;10.402;2024-02-21T04:53:20;21.50;;;11.33;;
13228;SDS011;6680;53.220;10.402;2024-02-21T04:55:47;27.07;;;11.57;;
13228;SDS011;6680;53.220;10.402;2024-02-21T04:58:15;20.83;;;11.37;;
13228;SDS011;6680;53.220;10.402;2024-02-21T05:00:42;17.33;;;10.70;;
13228;SDS011;6680;53.220;10.402;2024-02-21T05:03:09;21.90;;;11.37;;
13228;SDS011;6680;53.220;10.402;2024-02-21T05:05:36;17.90;;;11.03;;
13228;SDS011;6680;53.220;10.402;2024-02-21T05:08:03;28.90;;;12.27;;
13228;SDS011;6680;53.220;10.402;2024-02-21T05:10:30;19.10;;;11.50;;
13228;SDS011;6680;53.220;10.402;2024-02-21T05:12:57;24.20;;;11.87;;
13228;SDS011;6680;53.220;10.402;2024-02-21T05:15:25;18.57;;;11.57;;
13228;SDS011;6680;53.220;10.402;2024-02-21T05:17:52;15.23;;;9.80;;
13228;SDS011;6680;53.220;10.402;2024-02-21T05:20:19;18.13;;;10.93;;
13228;SDS011;6680;53.220;10.402;2024-02-21T05:22:46;17.90;;;10.53;;
13228;SDS011;6680;53.220;10.402;2024-02-21T05:25:12;19.47;;;10.23;;
13228;SDS011;6680;53.220;10.402;2024-02-21T05:27:39;18.30;;;10.30;;
13228;SDS011;6680;53.220;10.402;2024-02-21T05:30:06;17.50;;;10.60;;
13228;SDS011;6680;53.220;10.402;2024-02-21T05:32:36;24.50;;;10.43;;
13228;SDS011;6680;53.220;10.402;2024-02-21T05:35:03;20.03;;;11.03;;
13228;SDS011;6680;53.220;10.402;2024-02-21T05:37:30;14.70;;;10.53;;
13228;SDS011;6680;53.220;10.402;2024-02-21T05:39:57;17.70;;;11.30;;
13228;SDS011;6680;53.220;10.402;2024-02-21T05:42:23;18.23;;;10.70;;
13228;SDS011;6680;53.220;10.402;2024-02-21T05:44:50;22.70;;;10.67;;
13228;SDS011;6680;53.220;10.402;2024-02-21T05:47:17;15.20;;;8.87;;
13228;SDS011;6680;53.220;10.402;2024-02-21T05:49:47;17.00;;;9.80;;
13228;SDS011;6680;53.220;10.402;2024-02-21T05:52:14;15.13;;;9.20;;
13228;SDS011;6680;53.220;10.402;2024-02-21T05:54:41;17.03;;;9.47;;
13228;SDS011;6680;53.220;10.402;2024-02-21T05:57:08;17.83;;;9.90;;
13228;SDS011;6680;53.220;10.402;2024-02-21T05:59:35;16.80;;;10.03;;
13228;SDS011;6680;53.220;10.402;2024-02-21T06:02:05;15.30;;;9.77;;
13228;SDS011;6680;53.220;10.402;2024-02-21T06:04:31;16.07;;;8.90;;
13228;SDS011;6680;53.220;10.402;2024-02-21T06:07:00;16.73;;;9.53;;
13228;SDS011;6680;53.220;10.402;2024-02-21T06:09:27;13.57;;;8.27;;
13228;SDS011;6680;53.220;10.402;2024-02-21T06:11:53;18.80;;;10.30;;
13228;SDS011;6680;53.220;10.402;2024-02-21T06:14:20;15.23;;;9.57;;
13228;SDS011;6680;53.220;10.402;2024-02-21T06:16:47;19.97;;;10.13;;
13228;SDS011;6680;53.220;10.402;2024-02-21T06:19:14;14.67;;;9.23;;
13228;SDS011;6680;53.220;10.402;2024-02-21T06:21:40;15.83;;;8.77;;
13228;SDS011;6680;53.220;10.402;2024-02-21T06:24:09;12.67;;;7.93;;
13228;SDS011;6680;53.220;10.402;2024-02-21T06:26:37;14.03;;;8.37;;
13228;SDS011;6680;53.220;10.402;2024-02-21T06:29:05;12.70;;;8.20;;
13228;SDS011;6680;53.220;10.402;2024-02-21T06:31:32;15.70;;;9.23;;
13228;SDS011;6680;53.220;10.402;2024-02-21T06:33:58;17.93;;;8.63;;
13228;SDS011;6680;53.220;10.402;2024-02-21T06:36:25;15.67;;;9.07;;
13228;SDS011;6680;53.220;10.402;2024-02-21T06:38:52;15.70;;;8.93;;
13228;SDS011;6680;53.220;10.402;2024-02-21T06:41:20;15.47;;;7.80;;
13228;SDS011;6680;53.220;10.402;2024-02-21T06:43:47;13.93;;;8.57;;
13228;SDS011;6680;53.220;10.402;2024-02-21T06:46:22;15.87;;;7.80;;
13228;SDS011;6680;53.220;10.402;2024-02-21T06:48:50;13.40;;;7.93;;
13228;SDS011;6680;53.220;10.402;2024-02-21T06:51:16;13.33;;;8.50;;
13228;SDS011;6680;53.220;10.402;2024-02-21T06:53:43;11.70;;;7.40;;
13228;SDS011;6680;53.220;10.402;2024-02-21T06:56:10;16.17;;;8.67;;
13228;SDS011;6680;53.220;10.402;2024-02-21T06:58:38;13.77;;;7.93;;
13228;SDS011;6680;53.220;10.402;2024-02-21T07:01:05;8.67;;;6.63;;
13228;SDS011;6680;53.220;10.402;2024-02-21T07:03:32;12.23;;;7.53;;
13228;SDS011;6680;53.220;10.402;2024-02-21T07:05:59;9.87;;;7.10;;
13228;SDS011;6680;53.220;10.402;2024-02-21T07:08:26;15.90;;;8.30;;
13228;SDS011;6680;53.220;10.402;2024-02-21T07:10:53;12.00;;;7.33;;
13228;SDS011;6680;53.220;10.402;2024-02-21T07:13:19;12.37;;;8.17;;
13228;SDS011;6680;53.220;10.402;2024-02-21T07:15:49;10.67;;;6.70;;
13228;SDS011;6680;53.220;10.402;2024-02-21T07:18:16;10.37;;;6.77;;
13228;SDS011;6680;53.220;10.402;2024-02-21T07:20:42;10.30;;;6.23;;
13228;SDS011;6680;53.220;10.402;2024-02-21T07:23:09;9.73;;;6.50;;
13228;SDS011;6680;53.220;10.402;2024-02-21T07:25:36;9.67;;;6.87;;
13228;SDS011;6680;53.220;10.402;2024-02-21T07:28:03;9.53;;;6.70;;
13228;SDS011;6680;53.220;10.402;2024-02-21T07:30:30;12.63;;;6.73;;
13228;SDS011;6680;53.220;10.402;2024-02-21T07:32:58;11.97;;;6.30;;
13228;SDS011;6680;53.220;10.402;2024-02-21T07:35:25;9.13;;;6.43;;
13228;SDS011;6680;53.220;10.402;2024-02-21T07:37:52;9.50;;;6.33;;
13228;SDS011;6680;53.220;10.402;2024-02-21T07:40:19;10.57;;;6.10;;
13228;SDS011;6680;53.220;10.402;2024-02-21T07:42:45;9.20;;;6.00;;
13228;SDS011;6680;53.220;10.402;2024-02-21T07:45:12;7.53;;;5.50;;
13228;SDS011;6680;53.220;10.402;2024-02-21T07:47:39;9.20;;;5.53;;
13228;SDS011;6680;53.220;10.402;2024-02-21T07:50:08;8.87;;;6.33;;
13228;SDS011;6680;53.220;10.402;2024-02-21T07:52:35;10.37;;;6.30;;
13228;SDS011;6680;53.220;10.402;2024-02-21T07:55:02;9.10;;;5.93;;
13228;SDS011;6680;53.220;10.402;2024-02-21T07:57:29;6.90;;;5.70;;
13228;SDS011;6680;53.220;10.402;2024-02-21T07:59:56;13.33;;;6.23;;
13228;SDS011;6680;53.220;10.402;2024-02-21T08:02:22;8.57;;;5.80;;
13228;SDS011;6680;53.220;10.402;2024-02-21T08:04:49;7.43;;;5.40;;
13228;SDS011;6680;53.220;10.402;2024-02-21T08:07:18;8.43;;;6.23;;
13228;SDS011;6680;53.220;10.402;2024-02-21T08:09:44;8.67;;;6.00;;
13228;SDS011;6680;53.220;10.402;2024-02-21T08:12:11;6.80;;;5.07;;
13228;SDS011;6680;53.220;10.402;2024-02-21T08:14:38;8.90;;;6.13;;
13228;SDS011;6680;53.220;10.402;2024-02-21T08:17:05;7.77;;;5.60;;
13228;SDS011;6680;53.220;10.402;2024-02-21T08:19:31;7.67;;;5.77;;
13228;SDS011;6680;53.220;10.402;2024-02-21T08:21:58;8.10;;;5.50;;
13228;SDS011;6680;53.220;10.402;2024-02-21T08:24:26;8.57;;;5.40;;
13228;SDS011;6680;53.220;10.402;2024-02-21T08:26:53;7.17;;;5.13;;
13228;SDS011;6680;53.220;10.402;2024-02-21T08:29:20;6.87;;;5.17;;
13228;SDS011;6680;53.220;10.402;2024-02-21T08:31:48;11.47;;;6.50;;
13228;SDS011;6680;53.220;10.402;2024-02-21T08:34:14;9.10;;;6.13;;
13228;SDS011;6680;53.220;10.402;2024-02-21T08:36:43;9.20;;;5.93;;
13228;SDS011;6680;53.220;10.402;2024-02-21T08:39:09;10.00;;;5.93;;
13228;SDS011;6680;53.220;10.402;2024-02-21T08:41:38;9.53;;;5.87;;
13228;SDS011;6680;53.220;10.402;2024-02-21T08:44:04;7.60;;;4.97;;
13228;SDS011;6680;53.220;10.402;2024-02-21T08:46:32;11.93;;;5.60;;
13228;SDS011;6680;53.220;10.402;2024-02-21T08:48:59;8.83;;;6.07;;
13228;SDS011;6680;53.220;10.402;2024-02-21T08:51:26;8.43;;;5.13;;
13228;SDS011;6680;53.220;10.402;2024-02-21T08:53:52;7.67;;;5.70;;
13228;SDS011;6680;53.220;10.402;2024-02-21T08:56:20;10.80;;;5.87;;
13228;SDS011;6680;53.220;10.402;2024-02-21T08:58:48;8.00;;;6.20;;
13228;SDS011;6680;53.220;10.402;2024-02-21T09:01:15;9.33;;;6.33;;
13228;SDS011;6680;53.220;10.402;2024-02-21T09:03:42;6.33;;;5.20;;
13228;SDS011;6680;53.220;10.402;2024-02-21T09:06:09;7.07;;;5.27;;
13228;SDS011;6680;53.220;10.402;2024-02-21T09:08:38;7.00;;;5.30;;
13228;SDS011;6680;53.220;10.402;2024-02-21T09:11:05;7.07;;;5.27;;
13228;SDS011;6680;53.220;10.402;2024-02-21T09:13:32;6.60;;;4.93;;
13228;SDS011;6680;53.220;10.402;2024-02-21T09:16:01;6.53;;;4.80;;
13228;SDS011;6680;53.220;10.402;2024-02-21T09:18:27;8.33;;;5.73;;
13228;SDS011;6680;53.220;10.402;2024-02-21T09:20:54;8.80;;;5.47;;
13228;SDS011;6680;53.220;10.402;2024-02-21T09:23:23;7.27;;;4.83;;
13228;SDS011;6680;53.220;10.402;2024-02-21T09:25:50;8.87;;;5.03;;
13228;SDS011;6680;53.220;10.402;2024-02-21T09:28:17;7.57;;;5.20;;
13228;SDS011;6680;53.220;10.402;2024-02-21T09:30:44;6.33;;;4.90;;
13228;SDS011;6680;53.220;10.402;2024-02-21T09:33:12;7.63;;;5.57;;
13228;SDS011;6680;53.220;10.402;2024-02-21T09:35:39;6.30;;;4.80;;
13228;SDS011;6680;53.220;10.402;2024-02-21T09:38:06;9.13;;;5.53;;
13228;SDS011;6680;53.220;10.402;2024-02-21T09:40:33;6.97;;;5.20;;
13228;SDS011;6680;53.220;10.402;2024-02-21T09:43:04;8.97;;;6.27;;
13228;SDS011;6680;53.220;10.402;2024-02-21T09:45:32;7.60;;;5.13;;
13228;SDS011;6680;53.220;10.402;2024-02-21T09:48:19;8.90;;;6.30;;
13228;SDS011;6680;53.220;10.402;2024-02-21T09:50:56;9.30;;;6.67;;
13228;SDS011;6680;53.220;10.402;2024-02-21T09:53:25;10.60;;;6.13;;
13228;SDS011;6680;53.220;10.402;2024-02-21T09:55:53;10.00;;;6.77;;
13228;SDS011;6680;53.220;10.402;2024-02-21T09:58:21;11.57;;;6.87;;
13228;SDS011;6680;53.220;10.402;2024-02-21T10:00:51;11.47;;;7.07;;
13228;SDS011;6680;53.220;10.402;2024-02-21T10:03:19;11.73;;;7.67;;
13228;SDS011;6680;53.220;10.402;2024-02-21T10:05:47;17.90;;;8.67;;
13228;SDS011;6680;53.220;10.402;2024-02-21T10:08:15;17.27;;;9.33;;
13228;SDS011;6680;53.220;10.402;2024-02-21T10:10:42;13.37;;;8.73;;
13228;SDS011;6680;53.220;10.402;2024-02-21T10:13:09;16.43;;;9.63;;
13228;SDS011;6680;53.220;10.402;2024-02-21T10:15:37;16.53;;;9.57;;
13228;SDS011;6680;53.220;10.402;2024-02-21T10:18:04;21.00;;;10.53;;
13228;SDS011;6680;53.220;10.402;2024-02-21T10:20:33;14.77;;;9.53;;
13228;SDS011;6680;53.220;10.402;2024-02-21T10:23:00;12.97;;;8.87;;
13228;SDS011;6680;53.220;10.402;2024-02-21T10:25:28;17.83;;;9.43;;
13228;SDS011;6680;53.220;10.402;2024-02-21T10:27:55;16.13;;;8.27;;
13228;SDS011;6680;53.220;10.402;2024-02-21T10:30:23;15.20;;;9.50;;
13228;SDS011;6680;53.220;10.402;2024-02-21T10:32:50;19.83;;;9.47;;
13228;SDS011;6680;53.220;10.402;2024-02-21T10:35:25;13.80;;;9.10;;
13228;SDS011;6680;53.220;10.402;2024-02-21T10:37:54;15.03;;;8.27;;
13228;SDS011;6680;53.220;10.402;2024-02-21T10:40:23;14.73;;;7.57;;
13228;SDS011;6680;53.220;10.402;2024-02-21T10:42:51;11.77;;;7.57;;
13228;SDS011;6680;53.220;10.402;2024-02-21T10:45:26;12.00;;;7.77;;
13228;SDS011;6680;53.220;10.402;2024-02-21T10:48:01;13.07;;;7.07;;
13228;SDS011;6680;53.220;10.402;2024-02-21T10:50:36;11.40;;;7.43;;
13228;SDS011;6680;53.220;10.402;2024-02-21T10:53:17;13.40;;;7.17;;
13228;SDS011;6680;53.220;10.402;2024-02-21T10:55:51;12.43;;;6.77;;
13228;SDS011;6680;53.220;10.402;2024-02-21T10:58:24;19.93;;;6.43;;
13228;SDS011;6680;53.220;10.402;2024-02-21T11:00:53;16.53;;;7.40;;
13228;SDS011;6680;53.220;10.402;2024-02-21T11:03:21;10.40;;;6.80;;
13228;SDS011;6680;53.220;10.402;2024-02-21T11:05:48;12.80;;;6.00;;
13228;SDS011;6680;53.220;10.402;2024-02-21T11:08:17;11.83;;;7.37;;
13228;SDS011;6680;53.220;10.402;2024-02-21T11:10:45;11.40;;;6.70;;
13228;SDS011;6680;53.220;10.402;2024-02-21T11:13:12;9.23;;;5.93;;
13228;SDS011;6680;53.220;10.402;2024-02-21T11:15:39;11.83;;;6.70;;
13228;SDS011;6680;53.220;10.402;2024-02-21T11:18:06;12.60;;;6.50;;
13228;SDS011;6680;53.220;10.402;2024-02-21T11:20:33;12.90;;;6.40;;
13228;SDS011;6680;53.220;10.402;2024-02-21T11:23:00;8.17;;;6.23;;
13228;SDS011;6680;53.220;10.402;2024-02-21T11:25:29;10.43;;;6.63;;
13228;SDS011;6680;53.220;10.402;2024-02-21T11:28:01;8.00;;;5.57;;
13228;SDS011;6680;53.220;10.402;2024-02-21T11:30:29;11.07;;;6.53;;
13228;SDS011;6680;53.220;10.402;2024-02-21T11:33:00;11.43;;;6.50;;
13228;SDS011;6680;53.220;10.402;2024-02-21T11:35:30;11.80;;;6.33;;
13228;SDS011;6680;53.220;10.402;2024-02-21T11:38:07;11.17;;;6.80;;
13228;SDS011;6680;53.220;10.402;2024-02-21T11:40:39;9.93;;;7.80;;
13228;SDS011;6680;53.220;10.402;2024-02-21T11:43:06;12.67;;;7.77;;
13228;SDS011;6680;53.220;10.402;2024-02-21T11:45:33;13.17;;;8.30;;
13228;SDS011;6680;53.220;10.402;2024-02-21T11:48:00;10.13;;;7.30;;
13228;SDS011;6680;53.220;10.402;2024-02-21T11:50:28;13.90;;;8.23;;
13228;SDS011;6680;53.220;10.402;2024-02-21T11:52:55;14.40;;;7.60;;
13228;SDS011;6680;53.220;10.402;2024-02-21T11:55:22;13.63;;;8.43;;
13228;SDS011;6680;53.220;10.402;2024-02-21T11:57:50;13.33;;;8.40;;
13228;SDS011;6680;53.220;10.402;2024-02-21T12:00:18;14.10;;;8.47;;
13228;SDS011;6680;53.220;10.402;2024-02-21T12:02:46;14.97;;;9.20;;
13228;SDS011;6680;53.220;10.402;2024-02-21T12:05:13;14.00;;;8.87;;
13228;SDS011;6680;53.220;10.402;2024-02-21T12:07:40;12.23;;;8.73;;
13228;SDS011;6680;53.220;10.402;2024-02-21T12:10:08;13.53;;;8.00;;
13228;SDS011;6680;53.220;10.402;2024-02-21T12:12:36;18.30;;;9.20;;
13228;SDS011;6680;53.220;10.402;2024-02-21T12:15:05;12.63;;;7.97;;
13228;SDS011;6680;53.220;10.402;2024-02-21T12:17:33;12.33;;;9.00;;
13228;SDS011;6680;53.220;10.402;2024-02-21T12:20:00;13.73;;;8.73;;
13228;SDS011;6680;53.220;10.402;2024-02-21T12:22:29;12.37;;;8.27;;
13228;SDS011;6680;53.220;10.402;2024-02-21T12:24:57;13.57;;;8.73;;
13228;SDS011;6680;53.220;10.402;2024-02-21T12:27:24;9.97;;;8.17;;
13228;SDS011;6680;53.220;10.402;2024-02-21T12:29:51;16.27;;;9.10;;
13228;SDS011;6680;53.220;10.402;2024-02-21T12:32:19;11.03;;;7.70;;
13228;SDS011;6680;53.220;10.402;2024-02-21T12:34:46;12.37;;;8.30;;
13228;SDS011;6680;53.220;10.402;2024-02-21T12:37:13;16.63;;;7.90;;
13228;SDS011;6680;53.220;10.402;2024-02-21T12:39:41;14.00;;;6.67;;
13228;SDS011;6680;53.220;10.402;2024-02-21T12:42:07;10.00;;;7.10;;
13228;SDS011;6680;53.220;10.402;2024-02-21T12:44:36;11.07;;;7.53;;
13228;SDS011;6680;53.220;10.402;2024-02-21T12:47:03;10.13;;;7.40;;
13228;SDS011;6680;53.220;10.402;2024-02-21T12:49:31;10.97;;;7.17;;
13228;SDS011;6680;53.220;10.402;2024-02-21T12:51:58;8.80;;;6.10;;
13228;SDS011;6680;53.220;10.402;2024-02-21T12:54:25;9.87;;;6.30;;
13228;SDS011;6680;53.220;10.402;2024-02-21T12:56:52;10.83;;;5.83;;
13228;SDS011;6680;53.220;10.402;2024-02-21T12:59:19;9.23;;;6.50;;
13228;SDS011;6680;53.220;10.402;2024-02-21T13:01:46;7.87;;;6.00;;
13228;SDS011;6680;53.220;10.402;2024-02-21T13:04:12;7.37;;;5.80;;
13228;SDS011;6680;53.220;10.402;2024-02-21T13:06:40;7.87;;;5.73;;
13228;SDS011;6680;53.220;10.402;2024-02-21T13:09:07;8.30;;;5.53;;
13228;SDS011;6680;53.220;10.402;2024-02-21T13:11:36;11.20;;;6.07;;
13228;SDS011;6680;53.220;10.402;2024-02-21T13:14:03;7.40;;;5.67;;
13228;SDS011;6680;53.220;10.402;2024-02-21T13:16:29;9.07;;;5.90;;
13228;SDS011;6680;53.220;10.402;2024-02-21T13:18:56;6.60;;;5.40;;
13228;SDS011;6680;53.220;10.402;2024-02-21T13:21:23;12.00;;;6.07;;
13228;SDS011;6680;53.220;10.402;2024-02-21T13:23:52;7.57;;;5.43;;
13228;SDS011;6680;53.220;10.402;2024-02-21T13:26:18;9.90;;;5.37;;
13228;SDS011;6680;53.220;10.402;2024-02-21T13:28:45;9.37;;;5.73;;
13228;SDS011;6680;53.220;10.402;2024-02-21T13:31:13;7.90;;;5.90;;
13228;SDS011;6680;53.220;10.402;2024-02-21T13:33:41;8.17;;;5.40;;
13228;SDS011;6680;53.220;10.402;2024-02-21T13:36:09;9.47;;;5.50;;
13228;SDS011;6680;53.220;10.402;2024-02-21T13:38:36;8.20;;;5.10;;
13228;SDS011;6680;53.220;10.402;2024-02-21T13:41:05;10.07;;;5.07;;
13228;SDS011;6680;53.220;10.402;2024-02-21T13:43:32;11.03;;;5.27;;
13228;SDS011;6680;53.220;10.402;2024-02-21T13:46:00;11.03;;;4.77;;
13228;SDS011;6680;53.220;10.402;2024-02-21T13:48:30;10.57;;;4.90;;
13228;SDS011;6680;53.220;10.402;2024-02-21T13:50:58;5.60;;;4.37;;
13228;SDS011;6680;53.220;10.402;2024-02-21T13:53:27;6.80;;;4.40;;
13228;SDS011;6680;53.220;10.402;2024-02-21T13:55:54;5.97;;;4.27;;
13228;SDS011;6680;53.220;10.402;2024-02-21T13:58:22;8.13;;;4.10;;
13228;SDS011;6680;53.220;10.402;2024-02-21T14:00:51;7.73;;;4.13;;
13228;SDS011;6680;53.220;10.402;2024-02-21T14:03:17;7.67;;;3.97;;
13228;SDS011;6680;53.220;10.402;2024-02-21T14:05:45;7.07;;;4.00;;
13228;SDS011;6680;53.220;10.402;2024-02-21T14:08:13;6.77;;;3.93;;
13228;SDS011;6680;53.220;10.402;2024-02-21T14:10:40;6.20;;;3.70;;
13228;SDS011;6680;53.220;10.402;2024-02-21T14:13:07;4.20;;;3.73;;
13228;SDS011;6680;53.220;10.402;2024-02-21T14:15:35;5.67;;;3.87;;
13228;SDS011;6680;53.220;10.402;2024-02-21T14:18:06;4.47;;;3.73;;
13228;SDS011;6680;53.220;10.402;2024-02-21T14:20:34;9.73;;;3.67;;
13228;SDS011;6680;53.220;10.402;2024-02-21T14:23:01;9.83;;;3.77;;
13228;SDS011;6680;53.220;10.402;2024-02-21T14:25:29;7.67;;;3.63;;
13228;SDS011;6680;53.220;10.402;2024-02-21T14:27:56;5.47;;;3.73;;
13228;SDS011;6680;53.220;10.402;2024-02-21T14:30:23;6.57;;;3.63;;
13228;SDS011;6680;53.220;10.402;2024-02-21T14:32:51;5.50;;;3.63;;
13228;SDS011;6680;53.220;10.402;2024-02-21T14:35:18;6.13;;;2.77;;